sensor_id;sensor_type;location;lat;lon;timestamp;P1;durP1;ratioP1;P2;durP2;ratioP2
6386;SDS011;3226;42.162;24.756;2023-12-20T00:01:21;35.20;;;21.87;;
6386;SDS011;3226;42.162;24.756;2023-12-20T00:03:50;32.33;;;19.63;;
6386;SDS011;3226;42.162;24.756;2023-12-20T00:06:18;32.90;;;19.57;;
6386;SDS011;3226;42.162;24.756;2023-12-20T00:08:46;30.77;;;21.17;;
6386;SDS011;3226;42.162;24.756;2023-12-20T00:11:14;32.67;;;19.87;;
6386;SDS011;3226;42.162;24.756;2023-12-20T00:13:42;36.47;;;21.50;;
6386;SDS011;3226;42.162;24.756;2023-12-20T00:16:13;36.30;;;19.83;;
6386;SDS011;3226;42.162;24.756;2023-12-20T00:18:41;32.60;;;19.13;;
6386;SDS011;3226;42.162;24.756;2023-12-20T00:21:10;28.77;;;17.83;;
6386;SDS011;3226;42.162;24.756;2023-12-20T00:23:38;33.57;;;20.97;;
6386;SDS011;3226;42.162;24.756;2023-12-20T00:26:06;31.93;;;20.43;;
6386;SDS011;3226;42.162;24.756;2023-12-20T00:28:34;30.57;;;19.67;;
6386;SDS011;3226;42.162;24.756;2023-12-20T00:31:02;28.33;;;19.33;;
6386;SDS011;3226;42.162;24.756;2023-12-20T00:33:31;32.93;;;19.87;;
6386;SDS011;3226;42.162;24.756;2023-12-20T00:35:59;32.90;;;20.20;;
6386;SDS011;3226;42.162;24.756;2023-12-20T00:38:28;29.53;;;20.87;;
6386;SDS011;3226;42.162;24.756;2023-12-20T00:40:56;28.53;;;19.50;;
6386;SDS011;3226;42.162;24.756;2023-12-20T00:43:24;30.00;;;18.40;;
6386;SDS011;3226;42.162;24.756;2023-12-20T00:45:53;27.40;;;18.80;;
6386;SDS011;3226;42.162;24.756;2023-12-20T00:48:21;32.43;;;19.87;;
6386;SDS011;3226;42.162;24.756;2023-12-20T00:50:49;27.60;;;19.37;;
6386;SDS011;3226;42.162;24.756;2023-12-20T00:53:17;31.33;;;19.50;;
6386;SDS011;3226;42.162;24.756;2023-12-20T00:55:47;30.37;;;18.37;;
6386;SDS011;3226;42.162;24.756;2023-12-20T00:58:16;33.13;;;19.67;;
6386;SDS011;3226;42.162;24.756;2023-12-20T01:00:44;33.13;;;19.37;;
6386;SDS011;3226;42.162;24.756;2023-12-20T01:03:13;27.37;;;19.87;;
6386;SDS011;3226;42.162;24.756;2023-12-20T01:05:41;26.80;;;19.63;;
6386;SDS011;3226;42.162;24.756;2023-12-20T01:08:09;32.57;;;19.47;;
6386;SDS011;3226;42.162;24.756;2023-12-20T01:10:37;30.77;;;20.33;;
6386;SDS011;3226;42.162;24.756;2023-12-20T01:13:08;29.00;;;19.27;;
6386;SDS011;3226;42.162;24.756;2023-12-20T01:15:36;30.83;;;19.10;;
6386;SDS011;3226;42.162;24.756;2023-12-20T01:18:04;28.63;;;18.60;;
6386;SDS011;3226;42.162;24.756;2023-12-20T01:20:32;31.10;;;19.13;;
6386;SDS011;3226;42.162;24.756;2023-12-20T01:23:00;32.83;;;20.03;;
6386;SDS011;3226;42.162;24.756;2023-12-20T01:25:28;27.90;;;20.03;;
6386;SDS011;3226;42.162;24.756;2023-12-20T01:27:56;29.77;;;18.90;;
6386;SDS011;3226;42.162;24.756;2023-12-20T01:30:25;29.80;;;21.40;;
6386;SDS011;3226;42.162;24.756;2023-12-20T01:32:54;27.53;;;16.93;;
6386;SDS011;3226;42.162;24.756;2023-12-20T01:35:22;26.73;;;17.70;;
6386;SDS011;3226;42.162;24.756;2023-12-20T01:37:50;33.53;;;18.50;;
6386;SDS011;3226;42.162;24.756;2023-12-20T01:40:18;23.33;;;16.97;;
6386;SDS011;3226;42.162;24.756;2023-12-20T01:42:47;24.17;;;16.50;;
6386;SDS011;3226;42.162;24.756;2023-12-20T01:45:15;23.73;;;16.33;;
6386;SDS011;3226;42.162;24.756;2023-12-20T01:47:44;27.23;;;17.03;;
6386;SDS011;3226;42.162;24.756;2023-12-20T01:50:12;29.43;;;15.50;;
6386;SDS011;3226;42.162;24.756;2023-12-20T01:52:41;27.33;;;16.23;;
6386;SDS011;3226;42.162;24.756;2023-12-20T01:55:10;33.87;;;15.90;;
6386;SDS011;3226;42.162;24.756;2023-12-20T01:57:41;22.07;;;14.87;;
6386;SDS011;3226;42.162;24.756;2023-12-20T02:00:11;26.67;;;15.67;;
6386;SDS011;3226;42.162;24.756;2023-12-20T02:02:40;21.73;;;15.47;;
6386;SDS011;3226;42.162;24.756;2023-12-20T02:05:10;22.47;;;14.80;;
6386;SDS011;3226;42.162;24.756;2023-12-20T02:07:38;23.90;;;15.40;;
6386;SDS011;3226;42.162;24.756;2023-12-20T02:10:07;24.63;;;15.37;;
6386;SDS011;3226;42.162;24.756;2023-12-20T02:12:35;20.47;;;13.40;;
6386;SDS011;3226;42.162;24.756;2023-12-20T02:15:04;21.10;;;13.30;;
6386;SDS011;3226;42.162;24.756;2023-12-20T02:17:32;17.93;;;13.60;;
6386;SDS011;3226;42.162;24.756;2023-12-20T02:20:01;16.13;;;13.37;;
6386;SDS011;3226;42.162;24.756;2023-12-20T02:22:31;19.43;;;13.83;;
6386;SDS011;3226;42.162;24.756;2023-12-20T02:24:58;20.00;;;13.77;;
6386;SDS011;3226;42.162;24.756;2023-12-20T02:27:26;20.43;;;14.20;;
6386;SDS011;3226;42.162;24.756;2023-12-20T02:29:56;19.73;;;13.63;;
6386;SDS011;3226;42.162;24.756;2023-12-20T02:32:24;17.20;;;13.00;;
6386;SDS011;3226;42.162;24.756;2023-12-20T02:34:54;21.07;;;13.07;;
6386;SDS011;3226;42.162;24.756;2023-12-20T02:37:23;17.53;;;13.53;;
6386;SDS011;3226;42.162;24.756;2023-12-20T02:39:52;19.23;;;14.27;;
6386;SDS011;3226;42.162;24.756;2023-12-20T02:42:20;18.17;;;13.90;;
6386;SDS011;3226;42.162;24.756;2023-12-20T02:44:48;16.30;;;11.20;;
6386;SDS011;3226;42.162;24.756;2023-12-20T02:47:16;17.13;;;14.33;;
6386;SDS011;3226;42.162;24.756;2023-12-20T02:49:44;22.83;;;13.97;;
6386;SDS011;3226;42.162;24.756;2023-12-20T02:52:12;19.97;;;14.77;;
6386;SDS011;3226;42.162;24.756;2023-12-20T02:54:40;17.03;;;13.37;;
6386;SDS011;3226;42.162;24.756;2023-12-20T02:57:10;17.40;;;13.67;;
6386;SDS011;3226;42.162;24.756;2023-12-20T02:59:38;18.70;;;12.93;;
6386;SDS011;3226;42.162;24.756;2023-12-20T03:02:06;22.43;;;13.73;;
6386;SDS011;3226;42.162;24.756;2023-12-20T03:04:34;17.27;;;13.60;;
6386;SDS011;3226;42.162;24.756;2023-12-20T03:07:02;17.27;;;13.07;;
6386;SDS011;3226;42.162;24.756;2023-12-20T03:09:30;20.20;;;13.67;;
6386;SDS011;3226;42.162;24.756;2023-12-20T03:12:20;21.47;;;14.10;;
6386;SDS011;3226;42.162;24.756;2023-12-20T03:14:48;22.17;;;13.57;;
6386;SDS011;3226;42.162;24.756;2023-12-20T03:17:16;20.57;;;13.33;;
6386;SDS011;3226;42.162;24.756;2023-12-20T03:19:44;19.50;;;13.57;;
6386;SDS011;3226;42.162;24.756;2023-12-20T03:22:12;16.13;;;12.83;;
6386;SDS011;3226;42.162;24.756;2023-12-20T03:24:40;22.90;;;13.83;;
6386;SDS011;3226;42.162;24.756;2023-12-20T03:27:08;18.00;;;12.53;;
6386;SDS011;3226;42.162;24.756;2023-12-20T03:29:37;18.67;;;13.57;;
6386;SDS011;3226;42.162;24.756;2023-12-20T03:32:05;19.67;;;14.10;;
6386;SDS011;3226;42.162;24.756;2023-12-20T03:34:35;18.50;;;13.90;;
6386;SDS011;3226;42.162;24.756;2023-12-20T03:37:03;20.07;;;14.77;;
6386;SDS011;3226;42.162;24.756;2023-12-20T03:39:31;17.23;;;13.43;;
6386;SDS011;3226;42.162;24.756;2023-12-20T03:41:59;16.87;;;13.13;;
6386;SDS011;3226;42.162;24.756;2023-12-20T03:44:27;17.20;;;13.20;;
6386;SDS011;3226;42.162;24.756;2023-12-20T03:46:56;17.93;;;12.97;;
6386;SDS011;3226;42.162;24.756;2023-12-20T03:49:24;19.83;;;13.90;;
6386;SDS011;3226;42.162;24.756;2023-12-20T03:51:52;21.77;;;13.13;;
6386;SDS011;3226;42.162;24.756;2023-12-20T03:54:20;16.13;;;12.43;;
6386;SDS011;3226;42.162;24.756;2023-12-20T03:56:48;16.53;;;12.73;;
6386;SDS011;3226;42.162;24.756;2023-12-20T03:59:18;21.70;;;13.90;;
6386;SDS011;3226;42.162;24.756;2023-12-20T04:01:46;15.87;;;13.53;;
6386;SDS011;3226;42.162;24.756;2023-12-20T04:04:15;20.33;;;14.77;;
6386;SDS011;3226;42.162;24.756;2023-12-20T04:06:44;21.43;;;14.97;;
6386;SDS011;3226;42.162;24.756;2023-12-20T04:09:12;18.17;;;15.33;;
6386;SDS011;3226;42.162;24.756;2023-12-20T04:11:40;22.40;;;16.93;;
6386;SDS011;3226;42.162;24.756;2023-12-20T04:14:08;22.47;;;15.00;;
6386;SDS011;3226;42.162;24.756;2023-12-20T04:16:36;21.00;;;15.00;;
6386;SDS011;3226;42.162;24.756;2023-12-20T04:19:05;22.87;;;16.47;;
6386;SDS011;3226;42.162;24.756;2023-12-20T04:21:35;28.07;;;16.43;;
6386;SDS011;3226;42.162;24.756;2023-12-20T04:24:03;22.80;;;15.57;;
6386;SDS011;3226;42.162;24.756;2023-12-20T04:26:31;27.53;;;18.00;;
6386;SDS011;3226;42.162;24.756;2023-12-20T04:28:59;25.57;;;16.70;;
6386;SDS011;3226;42.162;24.756;2023-12-20T04:31:27;25.13;;;17.23;;
6386;SDS011;3226;42.162;24.756;2023-12-20T04:33:55;29.00;;;19.57;;
6386;SDS011;3226;42.162;24.756;2023-12-20T04:36:23;29.03;;;18.23;;
6386;SDS011;3226;42.162;24.756;2023-12-20T04:38:54;24.23;;;17.57;;
6386;SDS011;3226;42.162;24.756;2023-12-20T04:41:22;26.43;;;18.23;;
6386;SDS011;3226;42.162;24.756;2023-12-20T04:43:50;24.63;;;17.33;;
6386;SDS011;3226;42.162;24.756;2023-12-20T04:46:18;26.13;;;17.40;;
6386;SDS011;3226;42.162;24.756;2023-12-20T04:48:46;29.03;;;18.60;;
6386;SDS011;3226;42.162;24.756;2023-12-20T04:51:14;26.57;;;18.60;;
6386;SDS011;3226;42.162;24.756;2023-12-20T04:53:43;25.47;;;18.30;;
6386;SDS011;3226;42.162;24.756;2023-12-20T04:56:12;29.13;;;20.20;;
6386;SDS011;3226;42.162;24.756;2023-12-20T04:58:40;29.40;;;19.77;;
6386;SDS011;3226;42.162;24.756;2023-12-20T05:01:08;26.40;;;19.00;;
6386;SDS011;3226;42.162;24.756;2023-12-20T05:03:36;26.33;;;19.40;;
6386;SDS011;3226;42.162;24.756;2023-12-20T05:06:04;28.97;;;19.10;;
6386;SDS011;3226;42.162;24.756;2023-12-20T05:08:33;31.30;;;18.97;;
6386;SDS011;3226;42.162;24.756;2023-12-20T05:11:00;28.27;;;20.20;;
6386;SDS011;3226;42.162;24.756;2023-12-20T05:13:30;31.63;;;20.57;;
6386;SDS011;3226;42.162;24.756;2023-12-20T05:16:10;26.03;;;19.90;;
6386;SDS011;3226;42.162;24.756;2023-12-20T05:18:40;34.20;;;20.90;;
6386;SDS011;3226;42.162;24.756;2023-12-20T05:21:08;30.17;;;21.13;;
6386;SDS011;3226;42.162;24.756;2023-12-20T05:23:36;37.33;;;24.50;;
6386;SDS011;3226;42.162;24.756;2023-12-20T05:26:04;35.87;;;23.47;;
6386;SDS011;3226;42.162;24.756;2023-12-20T05:28:34;47.43;;;28.73;;
6386;SDS011;3226;42.162;24.756;2023-12-20T05:31:03;44.27;;;27.60;;
6386;SDS011;3226;42.162;24.756;2023-12-20T05:33:31;47.20;;;28.80;;
6386;SDS011;3226;42.162;24.756;2023-12-20T05:35:59;47.00;;;28.53;;
6386;SDS011;3226;42.162;24.756;2023-12-20T05:38:27;50.47;;;30.43;;
6386;SDS011;3226;42.162;24.756;2023-12-20T05:40:55;47.73;;;30.93;;
6386;SDS011;3226;42.162;24.756;2023-12-20T05:43:24;44.87;;;29.20;;
6386;SDS011;3226;42.162;24.756;2023-12-20T05:45:59;58.33;;;31.63;;
6386;SDS011;3226;42.162;24.756;2023-12-20T05:48:37;47.07;;;29.43;;
6386;SDS011;3226;42.162;24.756;2023-12-20T05:51:06;49.27;;;28.00;;
6386;SDS011;3226;42.162;24.756;2023-12-20T05:53:38;53.50;;;30.53;;
6386;SDS011;3226;42.162;24.756;2023-12-20T05:56:33;49.17;;;27.87;;
6386;SDS011;3226;42.162;24.756;2023-12-20T05:59:01;47.60;;;30.57;;
6386;SDS011;3226;42.162;24.756;2023-12-20T06:01:31;45.63;;;31.27;;
6386;SDS011;3226;42.162;24.756;2023-12-20T06:03:59;53.53;;;31.23;;
6386;SDS011;3226;42.162;24.756;2023-12-20T06:06:28;51.70;;;33.03;;
6386;SDS011;3226;42.162;24.756;2023-12-20T06:08:57;45.80;;;30.27;;
6386;SDS011;3226;42.162;24.756;2023-12-20T06:11:29;48.07;;;31.30;;
6386;SDS011;3226;42.162;24.756;2023-12-20T06:14:15;54.40;;;33.60;;
6386;SDS011;3226;42.162;24.756;2023-12-20T06:16:46;56.40;;;33.63;;
6386;SDS011;3226;42.162;24.756;2023-12-20T06:19:18;55.20;;;33.27;;
6386;SDS011;3226;42.162;24.756;2023-12-20T06:21:49;55.47;;;33.23;;
6386;SDS011;3226;42.162;24.756;2023-12-20T06:24:22;61.27;;;36.63;;
6386;SDS011;3226;42.162;24.756;2023-12-20T06:26:54;62.57;;;35.83;;
6386;SDS011;3226;42.162;24.756;2023-12-20T06:29:22;56.37;;;31.70;;
6386;SDS011;3226;42.162;24.756;2023-12-20T06:31:53;53.97;;;32.50;;
6386;SDS011;3226;42.162;24.756;2023-12-20T06:34:25;53.97;;;35.57;;
6386;SDS011;3226;42.162;24.756;2023-12-20T06:36:56;53.27;;;32.37;;
6386;SDS011;3226;42.162;24.756;2023-12-20T06:39:23;51.93;;;34.70;;
6386;SDS011;3226;42.162;24.756;2023-12-20T06:41:52;54.73;;;35.27;;
6386;SDS011;3226;42.162;24.756;2023-12-20T06:44:21;53.87;;;34.63;;
6386;SDS011;3226;42.162;24.756;2023-12-20T06:46:51;36.13;;;25.60;;
6386;SDS011;3226;42.162;24.756;2023-12-20T06:49:29;42.67;;;26.73;;
6386;SDS011;3226;42.162;24.756;2023-12-20T06:52:06;42.40;;;26.90;;
6386;SDS011;3226;42.162;24.756;2023-12-20T06:54:52;38.13;;;28.97;;
6386;SDS011;3226;42.162;24.756;2023-12-20T06:57:22;33.27;;;23.33;;
6386;SDS011;3226;42.162;24.756;2023-12-20T07:00:04;29.67;;;19.97;;
6386;SDS011;3226;42.162;24.756;2023-12-20T07:02:41;30.97;;;24.70;;
6386;SDS011;3226;42.162;24.756;2023-12-20T07:05:16;27.87;;;20.70;;
6386;SDS011;3226;42.162;24.756;2023-12-20T07:08:38;28.00;;;19.17;;
6386;SDS011;3226;42.162;24.756;2023-12-20T07:12:06;23.10;;;17.73;;
6386;SDS011;3226;42.162;24.756;2023-12-20T07:15:41;29.83;;;22.20;;
6386;SDS011;3226;42.162;24.756;2023-12-20T07:18:16;33.97;;;27.03;;
6386;SDS011;3226;42.162;24.756;2023-12-20T07:20:45;28.27;;;21.10;;
6386;SDS011;3226;42.162;24.756;2023-12-20T07:23:13;26.13;;;21.83;;
6386;SDS011;3226;42.162;24.756;2023-12-20T07:25:42;36.10;;;31.87;;
6386;SDS011;3226;42.162;24.756;2023-12-20T07:28:10;26.93;;;20.33;;
6386;SDS011;3226;42.162;24.756;2023-12-20T07:30:39;56.10;;;34.87;;
6386;SDS011;3226;42.162;24.756;2023-12-20T07:33:07;32.20;;;28.77;;
6386;SDS011;3226;42.162;24.756;2023-12-20T07:35:38;27.20;;;20.40;;
6386;SDS011;3226;42.162;24.756;2023-12-20T07:38:06;27.93;;;20.37;;
6386;SDS011;3226;42.162;24.756;2023-12-20T07:40:35;27.67;;;18.20;;
6386;SDS011;3226;42.162;24.756;2023-12-20T07:43:06;31.80;;;22.60;;
6386;SDS011;3226;42.162;24.756;2023-12-20T07:45:35;35.60;;;23.40;;
6386;SDS011;3226;42.162;24.756;2023-12-20T07:48:05;35.93;;;25.30;;
6386;SDS011;3226;42.162;24.756;2023-12-20T07:50:34;35.23;;;25.17;;
6386;SDS011;3226;42.162;24.756;2023-12-20T07:53:04;36.63;;;25.13;;
6386;SDS011;3226;42.162;24.756;2023-12-20T07:55:33;40.07;;;27.90;;
6386;SDS011;3226;42.162;24.756;2023-12-20T07:58:01;37.70;;;25.97;;
6386;SDS011;3226;42.162;24.756;2023-12-20T08:00:31;39.27;;;25.30;;
6386;SDS011;3226;42.162;24.756;2023-12-20T08:02:59;31.87;;;24.10;;
6386;SDS011;3226;42.162;24.756;2023-12-20T08:05:30;26.70;;;20.37;;
6386;SDS011;3226;42.162;24.756;2023-12-20T08:07:58;25.57;;;18.80;;
6386;SDS011;3226;42.162;24.756;2023-12-20T08:10:27;27.77;;;19.07;;
6386;SDS011;3226;42.162;24.756;2023-12-20T08:12:56;27.37;;;19.83;;
6386;SDS011;3226;42.162;24.756;2023-12-20T08:15:24;23.93;;;17.27;;
6386;SDS011;3226;42.162;24.756;2023-12-20T08:17:52;21.00;;;17.40;;
6386;SDS011;3226;42.162;24.756;2023-12-20T08:20:21;25.63;;;17.50;;
6386;SDS011;3226;42.162;24.756;2023-12-20T08:23:02;23.97;;;17.17;;
6386;SDS011;3226;42.162;24.756;2023-12-20T08:25:33;24.53;;;18.00;;
6386;SDS011;3226;42.162;24.756;2023-12-20T08:28:02;27.80;;;18.87;;
6386;SDS011;3226;42.162;24.756;2023-12-20T08:30:31;31.03;;;20.10;;
6386;SDS011;3226;42.162;24.756;2023-12-20T08:32:59;33.47;;;18.77;;
6386;SDS011;3226;42.162;24.756;2023-12-20T08:35:29;30.13;;;19.97;;
6386;SDS011;3226;42.162;24.756;2023-12-20T08:37:57;31.77;;;24.67;;
6386;SDS011;3226;42.162;24.756;2023-12-20T08:40:26;32.50;;;29.10;;
6386;SDS011;3226;42.162;24.756;2023-12-20T08:42:56;25.67;;;16.57;;
6386;SDS011;3226;42.162;24.756;2023-12-20T08:45:24;27.27;;;16.03;;
6386;SDS011;3226;42.162;24.756;2023-12-20T08:47:52;23.27;;;16.27;;
6386;SDS011;3226;42.162;24.756;2023-12-20T08:50:23;27.60;;;16.77;;
6386;SDS011;3226;42.162;24.756;2023-12-20T08:52:51;22.70;;;16.13;;
6386;SDS011;3226;42.162;24.756;2023-12-20T08:55:20;23.60;;;17.20;;
6386;SDS011;3226;42.162;24.756;2023-12-20T08:57:48;25.87;;;20.40;;
6386;SDS011;3226;42.162;24.756;2023-12-20T09:00:19;20.40;;;15.17;;
6386;SDS011;3226;42.162;24.756;2023-12-20T09:02:50;18.57;;;14.97;;
6386;SDS011;3226;42.162;24.756;2023-12-20T09:05:18;30.20;;;27.20;;
6386;SDS011;3226;42.162;24.756;2023-12-20T09:07:47;19.53;;;17.07;;
6386;SDS011;3226;42.162;24.756;2023-12-20T09:10:15;18.30;;;13.60;;
6386;SDS011;3226;42.162;24.756;2023-12-20T09:12:49;17.50;;;13.87;;
6386;SDS011;3226;42.162;24.756;2023-12-20T09:15:19;22.97;;;14.83;;
6386;SDS011;3226;42.162;24.756;2023-12-20T09:17:47;18.50;;;14.53;;
6386;SDS011;3226;42.162;24.756;2023-12-20T09:20:16;24.97;;;22.37;;
6386;SDS011;3226;42.162;24.756;2023-12-20T09:22:44;19.50;;;16.43;;
6386;SDS011;3226;42.162;24.756;2023-12-20T09:25:15;18.43;;;13.43;;
6386;SDS011;3226;42.162;24.756;2023-12-20T09:27:44;18.17;;;14.80;;
6386;SDS011;3226;42.162;24.756;2023-12-20T09:30:13;23.17;;;15.23;;
6386;SDS011;3226;42.162;24.756;2023-12-20T09:32:54;24.60;;;14.17;;
6386;SDS011;3226;42.162;24.756;2023-12-20T09:35:22;17.97;;;13.93;;
6386;SDS011;3226;42.162;24.756;2023-12-20T09:37:53;20.53;;;15.83;;
6386;SDS011;3226;42.162;24.756;2023-12-20T09:40:21;20.87;;;14.53;;
6386;SDS011;3226;42.162;24.756;2023-12-20T09:42:55;19.57;;;14.53;;
6386;SDS011;3226;42.162;24.756;2023-12-20T09:45:25;20.67;;;15.00;;
6386;SDS011;3226;42.162;24.756;2023-12-20T09:47:58;17.57;;;14.77;;
6386;SDS011;3226;42.162;24.756;2023-12-20T09:50:27;18.90;;;16.03;;
6386;SDS011;3226;42.162;24.756;2023-12-20T09:52:57;19.23;;;14.73;;
6386;SDS011;3226;42.162;24.756;2023-12-20T09:55:29;19.83;;;13.43;;
6386;SDS011;3226;42.162;24.756;2023-12-20T09:58:00;21.37;;;19.10;;
6386;SDS011;3226;42.162;24.756;2023-12-20T10:00:29;17.87;;;12.40;;
6386;SDS011;3226;42.162;24.756;2023-12-20T10:03:03;17.43;;;14.37;;
6386;SDS011;3226;42.162;24.756;2023-12-20T10:05:33;18.27;;;16.37;;
6386;SDS011;3226;42.162;24.756;2023-12-20T10:08:03;19.73;;;16.03;;
6386;SDS011;3226;42.162;24.756;2023-12-20T10:10:31;18.37;;;13.60;;
6386;SDS011;3226;42.162;24.756;2023-12-20T10:13:11;17.47;;;13.10;;
6386;SDS011;3226;42.162;24.756;2023-12-20T10:15:40;21.17;;;14.77;;
6386;SDS011;3226;42.162;24.756;2023-12-20T10:18:11;19.73;;;14.37;;
6386;SDS011;3226;42.162;24.756;2023-12-20T10:20:52;18.37;;;15.20;;
6386;SDS011;3226;42.162;24.756;2023-12-20T10:23:22;13.93;;;11.83;;
6386;SDS011;3226;42.162;24.756;2023-12-20T10:26:00;17.60;;;11.77;;
6386;SDS011;3226;42.162;24.756;2023-12-20T10:29:18;16.63;;;12.10;;
6386;SDS011;3226;42.162;24.756;2023-12-20T10:31:48;13.77;;;11.27;;
6386;SDS011;3226;42.162;24.756;2023-12-20T10:34:18;18.40;;;10.73;;
6386;SDS011;3226;42.162;24.756;2023-12-20T10:36:46;16.63;;;12.90;;
6386;SDS011;3226;42.162;24.756;2023-12-20T10:39:15;16.17;;;12.23;;
6386;SDS011;3226;42.162;24.756;2023-12-20T10:41:44;16.00;;;12.80;;
6386;SDS011;3226;42.162;24.756;2023-12-20T10:44:15;25.93;;;23.50;;
6386;SDS011;3226;42.162;24.756;2023-12-20T10:46:43;16.40;;;13.87;;
6386;SDS011;3226;42.162;24.756;2023-12-20T10:49:19;16.23;;;11.50;;
6386;SDS011;3226;42.162;24.756;2023-12-20T10:51:50;16.07;;;12.87;;
6386;SDS011;3226;42.162;24.756;2023-12-20T10:54:26;16.43;;;12.40;;
6386;SDS011;3226;42.162;24.756;2023-12-20T10:56:57;20.17;;;13.87;;
6386;SDS011;3226;42.162;24.756;2023-12-20T10:59:28;16.30;;;13.33;;
6386;SDS011;3226;42.162;24.756;2023-12-20T11:02:02;18.47;;;14.30;;
6386;SDS011;3226;42.162;24.756;2023-12-20T11:04:36;16.47;;;13.63;;
6386;SDS011;3226;42.162;24.756;2023-12-20T11:07:16;20.80;;;14.63;;
6386;SDS011;3226;42.162;24.756;2023-12-20T11:10:00;22.47;;;15.20;;
6386;SDS011;3226;42.162;24.756;2023-12-20T11:12:39;18.27;;;12.93;;
6386;SDS011;3226;42.162;24.756;2023-12-20T11:15:15;21.90;;;13.47;;
6386;SDS011;3226;42.162;24.756;2023-12-20T11:17:44;14.10;;;12.13;;
6386;SDS011;3226;42.162;24.756;2023-12-20T11:20:20;19.87;;;15.77;;
6386;SDS011;3226;42.162;24.756;2023-12-20T11:22:54;23.17;;;14.90;;
6386;SDS011;3226;42.162;24.756;2023-12-20T11:25:23;21.27;;;15.03;;
6386;SDS011;3226;42.162;24.756;2023-12-20T11:28:09;22.73;;;14.03;;
6386;SDS011;3226;42.162;24.756;2023-12-20T11:30:41;21.13;;;14.10;;
6386;SDS011;3226;42.162;24.756;2023-12-20T11:33:13;17.00;;;12.87;;
6386;SDS011;3226;42.162;24.756;2023-12-20T11:35:43;15.47;;;13.00;;
6386;SDS011;3226;42.162;24.756;2023-12-20T11:38:13;22.60;;;15.23;;
6386;SDS011;3226;42.162;24.756;2023-12-20T11:40:42;22.93;;;16.33;;
6386;SDS011;3226;42.162;24.756;2023-12-20T11:43:11;18.63;;;15.97;;
6386;SDS011;3226;42.162;24.756;2023-12-20T11:45:47;28.87;;;16.13;;
6386;SDS011;3226;42.162;24.756;2023-12-20T11:48:18;20.03;;;14.37;;
6386;SDS011;3226;42.162;24.756;2023-12-20T11:50:48;22.33;;;16.07;;
6386;SDS011;3226;42.162;24.756;2023-12-20T11:53:16;25.27;;;14.07;;
6386;SDS011;3226;42.162;24.756;2023-12-20T11:55:47;22.93;;;14.17;;
6386;SDS011;3226;42.162;24.756;2023-12-20T11:58:15;27.40;;;16.50;;
6386;SDS011;3226;42.162;24.756;2023-12-20T12:00:44;21.00;;;17.43;;
6386;SDS011;3226;42.162;24.756;2023-12-20T12:03:14;23.67;;;17.83;;
6386;SDS011;3226;42.162;24.756;2023-12-20T12:05:46;22.10;;;16.47;;
6386;SDS011;3226;42.162;24.756;2023-12-20T12:08:18;31.57;;;18.73;;
6386;SDS011;3226;42.162;24.756;2023-12-20T12:10:48;23.57;;;15.37;;
6386;SDS011;3226;42.162;24.756;2023-12-20T12:13:18;31.80;;;18.33;;
6386;SDS011;3226;42.162;24.756;2023-12-20T12:15:48;22.93;;;18.03;;
6386;SDS011;3226;42.162;24.756;2023-12-20T12:18:18;29.43;;;18.30;;
6386;SDS011;3226;42.162;24.756;2023-12-20T12:20:48;39.63;;;26.50;;
6386;SDS011;3226;42.162;24.756;2023-12-20T12:23:22;36.40;;;23.13;;
6386;SDS011;3226;42.162;24.756;2023-12-20T12:25:51;35.77;;;22.30;;
6386;SDS011;3226;42.162;24.756;2023-12-20T12:28:22;34.97;;;22.23;;
6386;SDS011;3226;42.162;24.756;2023-12-20T12:30:57;39.80;;;24.97;;
6386;SDS011;3226;42.162;24.756;2023-12-20T12:33:29;33.47;;;23.27;;
6386;SDS011;3226;42.162;24.756;2023-12-20T12:36:00;36.73;;;22.83;;
6386;SDS011;3226;42.162;24.756;2023-12-20T12:38:32;44.33;;;25.83;;
6386;SDS011;3226;42.162;24.756;2023-12-20T12:41:03;45.60;;;26.77;;
6386;SDS011;3226;42.162;24.756;2023-12-20T12:43:34;47.47;;;27.33;;
6386;SDS011;3226;42.162;24.756;2023-12-20T12:46:04;43.10;;;32.27;;
6386;SDS011;3226;42.162;24.756;2023-12-20T12:48:34;52.50;;;31.37;;
6386;SDS011;3226;42.162;24.756;2023-12-20T12:51:05;41.00;;;28.57;;
6386;SDS011;3226;42.162;24.756;2023-12-20T12:53:40;44.63;;;26.87;;
6386;SDS011;3226;42.162;24.756;2023-12-20T12:56:11;40.93;;;29.03;;
6386;SDS011;3226;42.162;24.756;2023-12-20T12:58:42;35.20;;;26.53;;
6386;SDS011;3226;42.162;24.756;2023-12-20T13:01:11;37.60;;;27.47;;
6386;SDS011;3226;42.162;24.756;2023-12-20T13:03:42;39.27;;;24.80;;
6386;SDS011;3226;42.162;24.756;2023-12-20T13:06:13;37.57;;;22.97;;
6386;SDS011;3226;42.162;24.756;2023-12-20T13:08:42;33.47;;;22.27;;
6386;SDS011;3226;42.162;24.756;2023-12-20T13:11:10;33.97;;;21.63;;
6386;SDS011;3226;42.162;24.756;2023-12-20T13:13:39;34.63;;;22.20;;
6386;SDS011;3226;42.162;24.756;2023-12-20T13:16:07;33.10;;;20.73;;
6386;SDS011;3226;42.162;24.756;2023-12-20T13:18:35;38.13;;;23.03;;
6386;SDS011;3226;42.162;24.756;2023-12-20T13:21:04;45.80;;;30.07;;
6386;SDS011;3226;42.162;24.756;2023-12-20T13:23:35;40.30;;;29.90;;
6386;SDS011;3226;42.162;24.756;2023-12-20T13:26:06;43.33;;;25.60;;
6386;SDS011;3226;42.162;24.756;2023-12-20T13:28:35;35.60;;;23.00;;
6386;SDS011;3226;42.162;24.756;2023-12-20T13:31:03;37.07;;;21.43;;
6386;SDS011;3226;42.162;24.756;2023-12-20T13:33:31;29.87;;;21.07;;
6386;SDS011;3226;42.162;24.756;2023-12-20T13:35:59;37.30;;;23.80;;
6386;SDS011;3226;42.162;24.756;2023-12-20T13:38:32;36.40;;;28.43;;
6386;SDS011;3226;42.162;24.756;2023-12-20T13:41:02;36.10;;;20.63;;
6386;SDS011;3226;42.162;24.756;2023-12-20T13:43:31;29.87;;;20.73;;
6386;SDS011;3226;42.162;24.756;2023-12-20T13:45:59;28.60;;;21.63;;
6386;SDS011;3226;42.162;24.756;2023-12-20T13:48:28;25.43;;;21.50;;
6386;SDS011;3226;42.162;24.756;2023-12-20T13:50:56;28.50;;;19.17;;
6386;SDS011;3226;42.162;24.756;2023-12-20T13:53:25;28.77;;;20.30;;
6386;SDS011;3226;42.162;24.756;2023-12-20T13:55:54;26.67;;;18.37;;
6386;SDS011;3226;42.162;24.756;2023-12-20T13:58:22;32.53;;;21.97;;
6386;SDS011;3226;42.162;24.756;2023-12-20T14:00:50;28.53;;;20.83;;
6386;SDS011;3226;42.162;24.756;2023-12-20T14:03:19;26.30;;;19.30;;
6386;SDS011;3226;42.162;24.756;2023-12-20T14:05:47;23.97;;;18.87;;
6386;SDS011;3226;42.162;24.756;2023-12-20T14:08:16;33.33;;;28.60;;
6386;SDS011;3226;42.162;24.756;2023-12-20T14:10:45;28.17;;;21.70;;
6386;SDS011;3226;42.162;24.756;2023-12-20T14:13:14;32.67;;;22.50;;
6386;SDS011;3226;42.162;24.756;2023-12-20T14:15:43;26.67;;;23.77;;
6386;SDS011;3226;42.162;24.756;2023-12-20T14:18:14;27.07;;;20.30;;
6386;SDS011;3226;42.162;24.756;2023-12-20T14:20:43;35.17;;;22.17;;
6386;SDS011;3226;42.162;24.756;2023-12-20T14:23:14;31.50;;;19.23;;
6386;SDS011;3226;42.162;24.756;2023-12-20T14:25:42;35.13;;;18.93;;
6386;SDS011;3226;42.162;24.756;2023-12-20T14:28:27;37.87;;;20.37;;
6386;SDS011;3226;42.162;24.756;2023-12-20T14:30:55;32.93;;;18.67;;
6386;SDS011;3226;42.162;24.756;2023-12-20T14:33:24;33.60;;;21.60;;
6386;SDS011;3226;42.162;24.756;2023-12-20T14:35:53;30.37;;;18.90;;
6386;SDS011;3226;42.162;24.756;2023-12-20T14:38:22;30.77;;;17.97;;
6386;SDS011;3226;42.162;24.756;2023-12-20T14:40:52;32.37;;;18.73;;
6386;SDS011;3226;42.162;24.756;2023-12-20T14:43:22;34.20;;;19.90;;
6386;SDS011;3226;42.162;24.756;2023-12-20T14:45:52;35.17;;;20.00;;
6386;SDS011;3226;42.162;24.756;2023-12-20T14:48:21;41.77;;;24.23;;
6386;SDS011;3226;42.162;24.756;2023-12-20T14:50:49;33.93;;;21.77;;
6386;SDS011;3226;42.162;24.756;2023-12-20T14:53:19;31.47;;;22.50;;